Time;durP1;ratioP1;P1;durP2;ratioP2;P2;SDS_P1;SDS_P2;PMS_P1;PMS_P2;Temp;Humidity;BMP_temperature;BMP_pressure;BME280_temperature;BME280_humidity;BME280_pressure;Samples;Min_cycle;Max_cycle;Signal;HPM_P1;HPM_P2
2023/09/19 00:02:18;;;;;;;0.52;0.52;;;16.70;99.90;;;;;;5132677;28;20205;-74
2023/09/19 00:04:44;;;;;;;0.68;0.68;;;16.70;99.90;;;;;;5114332;28;20302;-74
2023/09/19 00:07:10;;;;;;;1.88;1.15;;;16.70;99.90;;;;;;5136211;27;20186;-75
2023/09/19 00:09:38;;;;;;;0.93;0.73;;;16.70;99.90;;;;;;5136772;27;20532;-74
2023/09/19 00:12:06;;;;;;;1.67;1.25;;;16.70;99.90;;;;;;5142133;27;20246;-75
2023/09/19 00:14:34;;;;;;;0.32;0.32;;;16.70;99.90;;;;;;5157494;27;20273;-74
2023/09/19 00:17:00;;;;;;;2.58;1.52;;;16.70;99.90;;;;;;5148696;27;20277;-75
2023/09/19 00:19:26;;;;;;;0.80;0.80;;;16.70;99.90;;;;;;5136519;27;20623;-74
2023/09/19 00:21:53;;;;;;;0.90;0.90;;;16.80;99.90;;;;;;5136688;27;20274;-75
2023/09/19 00:24:18;;;;;;;0.98;0.90;;;16.70;99.90;;;;;;5136576;27;20567;-74
2023/09/19 00:26:47;;;;;;;2.20;0.98;;;16.70;99.90;;;;;;5136605;27;20193;-75
2023/09/19 00:29:16;;;;;;;1.55;1.13;;;16.70;99.90;;;;;;5136493;27;20553;-75
2023/09/19 00:31:43;;;;;;;0.50;0.50;;;16.80;99.90;;;;;;5148784;27;20626;-74
2023/09/19 00:34:10;;;;;;;0.55;0.55;;;16.70;99.90;;;;;;5156951;27;20565;-74
2023/09/19 00:36:39;;;;;;;0.40;0.40;;;16.70;99.90;;;;;;5157068;27;20186;-74
2023/09/19 00:39:06;;;;;;;1.13;0.98;;;16.70;99.90;;;;;;5157148;27;20194;-75
2023/09/19 00:41:35;;;;;;;3.72;1.40;;;16.80;99.90;;;;;;5156877;27;20198;-75
2023/09/19 00:44:02;;;;;;;0.55;0.52;;;16.80;99.90;;;;;;5156799;27;20233;-75
2023/09/19 00:46:28;;;;;;;0.90;0.85;;;16.70;99.90;;;;;;5156833;27;20194;-74
2023/09/19 00:48:54;;;;;;;0.60;0.55;;;16.70;99.90;;;;;;5138379;27;20191;-74
2023/09/19 00:51:22;;;;;;;6.68;1.90;;;16.70;99.90;;;;;;5138160;27;20193;-74
2023/09/19 00:53:47;;;;;;;1.17;1.05;;;16.70;99.90;;;;;;5156946;27;20566;-74
2023/09/19 00:56:15;;;;;;;1.52;0.90;;;16.70;99.90;;;;;;5156874;27;20194;-75
2023/09/19 00:58:40;;;;;;;1.95;0.95;;;16.70;99.90;;;;;;5156528;27;20250;-75
2023/09/19 01:01:07;;;;;;;0.63;0.52;;;16.70;99.90;;;;;;5156862;27;20217;-75
2023/09/19 01:03:33;;;;;;;1.05;0.77;;;16.70;99.90;;;;;;5156446;27;20190;-75
2023/09/19 01:06:02;;;;;;;0.68;0.68;;;16.70;99.90;;;;;;5156798;27;20205;-74
2023/09/19 01:08:29;;;;;;;0.77;0.77;;;16.70;99.90;;;;;;5156239;27;20201;-75
2023/09/19 01:11:28;;;;;;;0.65;0.65;;;16.70;99.90;;;;;;5155186;27;20198;-74
2023/09/19 01:14:07;;;;;;;0.32;0.32;;;16.70;99.90;;;;;;5156280;27;20561;-74
2023/09/19 01:16:42;;;;;;;0.60;0.60;;;16.70;99.90;;;;;;5155972;27;20281;-73
2023/09/19 01:19:23;;;;;;;0.98;0.98;;;16.70;99.90;;;;;;5153936;27;20193;-74
2023/09/19 01:22:15;;;;;;;0.95;0.95;;;16.70;99.90;;;;;;5155855;27;20186;-75
2023/09/19 01:25:17;;;;;;;0.80;0.80;;;16.70;99.90;;;;;;5155708;27;20334;-75
2023/09/19 01:28:00;;;;;;;0.65;0.65;;;16.80;99.90;;;;;;5155568;27;20197;-74
2023/09/19 01:30:32;;;;;;;0.65;0.65;;;16.70;99.90;;;;;;5155925;27;20212;-74
2023/09/19 01:32:59;;;;;;;0.93;0.80;;;16.70;99.90;;;;;;5156832;27;20258;-75
2023/09/19 01:35:25;;;;;;;1.08;0.68;;;16.70;99.90;;;;;;5155740;27;20198;-75
2023/09/19 01:37:53;;;;;;;1.25;0.90;;;16.70;99.90;;;;;;5156078;27;20243;-75
2023/09/19 01:40:21;;;;;;;1.27;0.98;;;16.70;99.90;;;;;;5155753;27;20249;-75
2023/09/19 01:43:07;;;;;;;0.68;0.68;;;16.70;99.90;;;;;;5137632;27;20198;-76
2023/09/19 01:45:42;;;;;;;1.13;0.70;;;16.70;99.90;;;;;;5133769;27;20246;-77
2023/09/19 01:48:16;;;;;;;0.80;0.80;;;16.70;99.90;;;;;;5135319;27;20657;-76
2023/09/19 01:51:01;;;;;;;0.88;0.68;;;16.80;99.90;;;;;;5116360;27;20186;-77
2023/09/19 01:53:33;;;;;;;2.75;1.15;;;16.80;99.90;;;;;;5116352;27;20203;-75
2023/09/19 01:56:01;;;;;;;1.38;0.60;;;16.80;99.90;;;;;;5135078;27;20664;-76
2023/09/19 01:58:27;;;;;;;0.45;0.45;;;16.80;99.90;;;;;;5134836;27;20187;-76
2023/09/19 02:00:54;;;;;;;0.80;0.80;;;16.80;99.90;;;;;;5134864;27;20194;-77
2023/09/19 02:03:24;;;;;;;4.70;1.85;;;16.80;99.90;;;;;;5134658;27;20187;-76
2023/09/19 02:05:51;;;;;;;0.75;0.75;;;16.80;99.90;;;;;;5150924;27;20206;-76
2023/09/19 02:08:23;;;;;;;1.55;1.05;;;16.80;99.90;;;;;;5155543;27;20247;-76
2023/09/19 02:10:49;;;;;;;1.15;1.05;;;16.80;99.90;;;;;;5155360;27;20182;-77
2023/09/19 02:13:19;;;;;;;1.17;1.08;;;16.80;99.90;;;;;;5139642;27;20251;-76
2023/09/19 02:15:46;;;;;;;1.35;1.25;;;16.80;99.90;;;;;;5134524;27;20197;-76
2023/09/19 02:18:12;;;;;;;1.55;1.15;;;16.80;99.90;;;;;;5134431;27;20198;-76
2023/09/19 02:20:39;;;;;;;0.90;0.85;;;16.80;99.90;;;;;;5134233;27;20280;-76
2023/09/19 02:23:05;;;;;;;1.13;1.02;;;16.80;99.90;;;;;;5137423;27;20276;-75
2023/09/19 02:25:35;;;;;;;0.30;0.30;;;16.80;99.90;;;;;;5154801;27;20233;-75
2023/09/19 02:28:09;;;;;;;1.02;0.95;;;16.80;99.90;;;;;;5154277;27;20562;-75
2023/09/19 02:30:36;;;;;;;0.70;0.70;;;16.80;99.90;;;;;;5136215;27;20660;-76
2023/09/19 02:33:01;;;;;;;1.13;0.88;;;16.80;99.90;;;;;;5154923;27;20186;-75
2023/09/19 02:35:28;;;;;;;0.50;0.50;;;16.80;99.90;;;;;;5154455;27;20263;-76
2023/09/19 02:37:54;;;;;;;1.23;0.85;;;16.80;99.90;;;;;;5154958;27;20244;-76
2023/09/19 02:40:19;;;;;;;0.73;0.73;;;16.80;99.90;;;;;;5154626;27;20207;-75
2023/09/19 02:42:49;;;;;;;1.02;0.93;;;16.80;99.90;;;;;;5144469;27;20202;-75
2023/09/19 02:45:17;;;;;;;0.70;0.70;;;16.80;99.90;;;;;;5133999;27;20233;-76
2023/09/19 02:47:43;;;;;;;0.85;0.80;;;16.80;99.90;;;;;;5133883;27;20235;-75
2023/09/19 02:50:13;;;;;;;2.75;1.25;;;16.80;99.90;;;;;;5133854;27;20187;-75
2023/09/19 02:52:42;;;;;;;0.75;0.70;;;16.80;99.90;;;;;;5115232;27;20699;-75
2023/09/19 02:55:09;;;;;;;1.10;1.05;;;16.80;99.90;;;;;;5133577;27;20360;-76
2023/09/19 02:57:36;;;;;;;1.17;1.08;;;16.80;99.90;;;;;;5133658;27;20287;-75
2023/09/19 03:00:04;;;;;;;0.90;0.90;;;16.80;99.90;;;;;;5133975;27;20194;-76
2023/09/19 03:02:32;;;;;;;0.93;0.90;;;16.80;99.90;;;;;;5152303;27;20542;-75
2023/09/19 03:05:00;;;;;;;3.15;1.25;;;16.80;99.90;;;;;;5154244;27;20206;-75
2023/09/19 03:07:26;;;;;;;0.70;0.70;;;16.80;99.90;;;;;;5154039;27;20189;-77
2023/09/19 03:09:52;;;;;;;2.17;1.42;;;16.80;99.90;;;;;;5154223;27;20186;-77
2023/09/19 03:12:18;;;;;;;0.75;0.65;;;16.80;99.90;;;;;;5135623;27;20190;-77
2023/09/19 03:14:44;;;;;;;2.80;1.67;;;16.80;99.90;;;;;;5154113;27;20205;-79
2023/09/19 03:17:09;;;;;;;0.90;0.73;;;16.90;99.90;;;;;;5154195;27;20189;-77
2023/09/19 03:19:37;;;;;;;1.40;1.00;;;16.90;99.90;;;;;;5153640;27;20565;-75
2023/09/19 03:22:03;;;;;;;2.70;1.33;;;16.90;99.90;;;;;;5153992;27;20178;-75
2023/09/19 03:24:29;;;;;;;1.45;1.10;;;16.90;99.90;;;;;;5153725;27;20205;-75
2023/09/19 03:26:55;;;;;;;0.93;0.93;;;16.90;99.90;;;;;;5153865;27;20190;-75
2023/09/19 03:29:20;;;;;;;0.68;0.68;;;16.90;99.90;;;;;;5134989;27;20190;-75
2023/09/19 03:31:46;;;;;;;1.90;0.90;;;16.90;99.90;;;;;;5153828;27;20186;-75
2023/09/19 03:34:12;;;;;;;2.05;1.38;;;16.90;99.90;;;;;;5153595;27;20229;-75
2023/09/19 03:36:38;;;;;;;1.70;0.85;;;16.90;99.90;;;;;;5153751;27;20255;-75
2023/09/19 03:39:06;;;;;;;1.55;1.00;;;16.90;99.90;;;;;;5153747;27;20201;-76
2023/09/19 03:41:33;;;;;;;0.60;0.60;;;16.90;99.90;;;;;;5153764;27;20190;-75
2023/09/19 03:43:58;;;;;;;0.52;0.52;;;16.90;99.90;;;;;;5153559;27;20313;-75
2023/09/19 03:46:24;;;;;;;3.22;1.25;;;16.90;99.90;;;;;;5153437;27;20273;-75
2023/09/19 03:48:50;;;;;;;1.38;0.75;;;16.90;99.90;;;;;;5135135;27;20247;-75
2023/09/19 03:51:16;;;;;;;1.05;0.95;;;16.90;99.90;;;;;;5153461;27;20198;-75
2023/09/19 03:53:41;;;;;;;1.35;0.95;;;17.00;99.90;;;;;;5153594;27;20193;-77
2023/09/19 03:56:08;;;;;;;1.10;0.85;;;16.90;99.90;;;;;;5153737;27;20190;-75
2023/09/19 03:58:38;;;;;;;1.25;1.08;;;17.00;99.90;;;;;;5149495;27;20224;-75
2023/09/19 04:01:03;;;;;;;0.60;0.55;;;17.00;99.90;;;;;;5153720;27;20213;-74
2023/09/19 04:03:35;;;;;;;1.05;0.95;;;17.00;99.90;;;;;;5153477;27;20632;-74
2023/09/19 04:06:02;;;;;;;2.50;0.90;;;17.00;99.90;;;;;;5152218;27;20198;-76
2023/09/19 04:08:27;;;;;;;3.25;1.95;;;17.00;99.90;;;;;;5153433;27;20265;-76
2023/09/19 04:10:53;;;;;;;0.60;0.52;;;17.00;99.90;;;;;;5153588;27;20311;-76
2023/09/19 04:13:19;;;;;;;1.63;1.23;;;17.00;99.90;;;;;;5153339;27;20178;-76
2023/09/19 04:15:46;;;;;;;0.80;0.80;;;17.00;99.90;;;;;;5150594;27;20186;-76
2023/09/19 04:18:12;;;;;;;0.47;0.47;;;17.00;99.90;;;;;;5153568;27;20190;-76
2023/09/19 04:20:37;;;;;;;1.00;0.85;;;17.00;99.90;;;;;;5153363;27;20239;-76
2023/09/19 04:23:05;;;;;;;1.00;0.95;;;17.00;99.90;;;;;;5153237;27;20186;-76
2023/09/19 04:25:31;;;;;;;0.60;0.60;;;17.00;99.90;;;;;;5153283;27;20202;-76
2023/09/19 04:27:57;;;;;;;0.73;0.73;;;17.00;99.90;;;;;;5153619;27;20182;-75
2023/09/19 04:30:23;;;;;;;1.88;1.50;;;17.10;99.90;;;;;;5152989;27;20205;-75
2023/09/19 04:32:50;;;;;;;1.58;1.48;;;17.10;99.90;;;;;;5153342;27;20186;-78
2023/09/19 04:35:16;;;;;;;4.32;1.92;;;17.10;99.90;;;;;;5141951;27;20254;-77
2023/09/19 04:37:45;;;;;;;0.95;0.93;;;17.10;99.90;;;;;;5132389;28;20193;-76
2023/09/19 04:40:20;;;;;;;2.92;1.88;;;17.10;99.90;;;;;;5132627;28;20218;-76
2023/09/19 04:42:53;;;;;;;1.00;0.90;;;17.10;99.90;;;;;;5132743;28;20560;-76
2023/09/19 04:45:19;;;;;;;1.58;1.02;;;17.10;99.90;;;;;;5113909;28;20227;-76
2023/09/19 04:47:46;;;;;;;0.47;0.47;;;17.10;99.90;;;;;;5113976;28;20201;-77
2023/09/19 04:50:12;;;;;;;2.13;1.33;;;17.10;99.90;;;;;;5132496;28;20189;-76
2023/09/19 04:52:41;;;;;;;0.80;0.80;;;17.10;99.90;;;;;;5116473;27;20191;-77
2023/09/19 04:55:09;;;;;;;0.68;0.68;;;17.10;99.90;;;;;;5136413;27;20248;-77
2023/09/19 04:57:36;;;;;;;1.95;0.75;;;17.10;99.90;;;;;;5136439;27;20187;-76
2023/09/19 05:00:06;;;;;;;0.35;0.35;;;17.10;99.90;;;;;;5136194;27;20187;-76
2023/09/19 05:02:34;;;;;;;3.50;1.60;;;17.10;99.90;;;;;;5135954;27;20191;-77
2023/09/19 05:05:00;;;;;;;0.80;0.63;;;17.10;99.90;;;;;;5135891;27;20198;-76
2023/09/19 05:07:26;;;;;;;1.40;0.73;;;17.10;99.90;;;;;;5135828;27;20191;-77
2023/09/19 05:09:51;;;;;;;10.25;2.05;;;17.10;99.90;;;;;;5135918;27;20191;-77
2023/09/19 05:12:19;;;;;;;2.67;1.42;;;17.10;99.90;;;;;;5124420;27;20193;-76
2023/09/19 05:14:45;;;;;;;0.55;0.55;;;17.10;99.90;;;;;;5156890;27;20194;-76
2023/09/19 05:17:10;;;;;;;0.70;0.70;;;17.20;99.90;;;;;;5156394;27;20205;-76
2023/09/19 05:19:36;;;;;;;1.60;1.30;;;17.20;99.90;;;;;;5156232;27;20220;-76
2023/09/19 05:22:04;;;;;;;0.47;0.47;;;17.10;99.90;;;;;;5156305;27;20213;-77
2023/09/19 05:24:30;;;;;;;1.10;0.93;;;17.20;99.90;;;;;;5137597;27;20201;-78
2023/09/19 05:26:56;;;;;;;1.27;1.15;;;17.20;99.90;;;;;;5156578;27;20178;-77
2023/09/19 05:29:22;;;;;;;0.65;0.65;;;17.20;99.90;;;;;;5155998;27;20617;-76
2023/09/19 05:31:49;;;;;;;0.50;0.50;;;17.20;99.90;;;;;;5156288;27;20440;-77
2023/09/19 05:34:15;;;;;;;0.90;0.90;;;17.20;99.90;;;;;;5155881;27;20186;-76
2023/09/19 05:36:41;;;;;;;1.15;0.85;;;17.20;99.90;;;;;;5156292;27;20242;-78
2023/09/19 05:39:09;;;;;;;0.30;0.30;;;17.20;99.90;;;;;;5156115;27;20282;-76
2023/09/19 05:41:36;;;;;;;0.68;0.68;;;17.20;99.90;;;;;;5155881;27;20189;-76
2023/09/19 05:44:03;;;;;;;0.47;0.47;;;17.20;99.90;;;;;;5155494;27;20313;-75
2023/09/19 05:46:29;;;;;;;1.48;0.82;;;17.10;99.90;;;;;;5155920;27;20283;-77
2023/09/19 05:48:56;;;;;;;0.50;0.50;;;17.10;99.90;;;;;;5156094;27;20226;-76
2023/09/19 05:51:22;;;;;;;0.57;0.52;;;17.10;99.90;;;;;;5134984;27;20214;-76
2023/09/19 05:53:48;;;;;;;0.70;0.68;;;17.10;99.90;;;;;;5135060;27;20189;-76
2023/09/19 05:56:14;;;;;;;1.77;1.23;;;17.20;99.90;;;;;;5134967;27;20194;-75
2023/09/19 05:58:44;;;;;;;0.63;0.63;;;17.20;99.90;;;;;;5134865;27;20282;-74
2023/09/19 06:01:10;;;;;;;0.63;0.63;;;17.20;99.90;;;;;;5134968;27;20187;-76
2023/09/19 06:03:35;;;;;;;0.57;0.57;;;17.20;99.90;;;;;;5134871;27;20191;-75
2023/09/19 06:06:06;;;;;;;0.52;0.52;;;17.20;99.90;;;;;;5134658;27;20207;-74
2023/09/19 06:08:35;;;;;;;2.03;0.73;;;17.10;99.90;;;;;;5141383;27;20648;-75
2023/09/19 06:11:01;;;;;;;1.17;1.00;;;17.10;99.90;;;;;;5155376;27;20190;-75
2023/09/19 06:13:30;;;;;;;1.65;0.68;;;17.10;99.90;;;;;;5155154;27;20190;-75
2023/09/19 06:15:56;;;;;;;2.35;0.77;;;17.10;99.90;;;;;;5136723;27;20194;-74
2023/09/19 06:18:26;;;;;;;0.73;0.73;;;17.10;99.90;;;;;;5154969;27;20208;-74
2023/09/19 06:20:51;;;;;;;2.30;1.38;;;17.10;99.90;;;;;;5155178;27;20190;-75
2023/09/19 06:23:17;;;;;;;0.60;0.60;;;17.10;99.90;;;;;;5155026;27;20190;-75
2023/09/19 06:25:43;;;;;;;0.95;0.95;;;17.10;99.90;;;;;;5154907;27;20209;-75
2023/09/19 06:28:12;;;;;;;0.88;0.85;;;17.10;99.90;;;;;;5141167;27;20203;-74
2023/09/19 06:30:41;;;;;;;1.20;1.10;;;17.10;99.90;;;;;;5134102;27;20243;-75
2023/09/19 06:33:07;;;;;;;0.80;0.80;;;17.20;99.90;;;;;;5134330;27;20638;-76
2023/09/19 06:35:33;;;;;;;0.63;0.63;;;17.20;99.90;;;;;;5147734;27;20250;-75
2023/09/19 06:38:02;;;;;;;0.60;0.60;;;17.20;99.90;;;;;;5155080;27;20190;-75
2023/09/19 06:40:30;;;;;;;1.88;1.15;;;17.30;99.90;;;;;;5154460;27;20204;-75
2023/09/19 06:42:57;;;;;;;7.15;2.30;;;17.20;99.90;;;;;;5154904;27;20653;-75
2023/09/19 06:45:26;;;;;;;1.05;0.95;;;17.30;99.90;;;;;;5154108;27;20684;-75
2023/09/19 06:47:53;;;;;;;1.73;1.42;;;17.40;99.90;;;;;;5154612;27;20684;-75
2023/09/19 06:50:22;;;;;;;3.00;1.42;;;17.30;99.90;;;;;;5154246;27;20451;-74
2023/09/19 06:52:53;;;;;;;1.00;0.93;;;17.40;99.90;;;;;;5154477;27;20192;-74
2023/09/19 06:55:20;;;;;;;1.58;1.13;;;17.40;99.90;;;;;;5154230;27;20679;-75
2023/09/19 06:57:49;;;;;;;1.58;1.20;;;17.30;99.90;;;;;;5149887;27;20681;-74
2023/09/19 07:00:15;;;;;;;0.68;0.68;;;17.40;99.90;;;;;;5133548;27;20285;-75
2023/09/19 07:03:00;;;;;;;1.15;1.05;;;17.40;99.90;;;;;;5133509;27;20214;-75
2023/09/19 07:05:29;;;;;;;0.95;0.93;;;17.30;99.90;;;;;;5146041;27;20209;-75
2023/09/19 07:07:55;;;;;;;0.43;0.43;;;17.30;99.90;;;;;;5154203;27;20634;-75
2023/09/19 07:10:23;;;;;;;0.80;0.80;;;17.30;99.90;;;;;;5154113;27;20194;-75
2023/09/19 07:12:58;;;;;;;0.65;0.65;;;17.20;99.90;;;;;;5154334;27;20217;-75
2023/09/19 07:15:27;;;;;;;1.00;0.88;;;17.20;99.90;;;;;;5153514;27;20194;-74
2023/09/19 07:17:55;;;;;;;0.50;0.50;;;17.20;99.90;;;;;;5154005;27;20194;-74
2023/09/19 07:20:23;;;;;;;1.52;0.95;;;17.10;99.90;;;;;;5153827;27;20197;-74
2023/09/19 07:22:51;;;;;;;0.50;0.50;;;17.10;99.90;;;;;;5135432;27;20197;-74
2023/09/19 07:25:17;;;;;;;2.55;1.15;;;17.00;99.90;;;;;;5153809;27;20217;-74
2023/09/19 07:27:43;;;;;;;0.80;0.80;;;17.00;99.90;;;;;;5135534;27;20194;-74
2023/09/19 07:30:11;;;;;;;0.60;0.60;;;17.00;99.90;;;;;;5153917;27;20403;-74
2023/09/19 07:32:38;;;;;;;0.60;0.60;;;17.00;99.90;;;;;;5153856;27;20185;-74
2023/09/19 07:35:05;;;;;;;0.65;0.65;;;17.00;99.90;;;;;;5150174;27;20194;-74
2023/09/19 07:37:33;;;;;;;0.52;0.52;;;16.90;99.90;;;;;;5114575;27;20242;-74
2023/09/19 07:40:00;;;;;;;0.40;0.40;;;17.00;99.90;;;;;;5133154;27;20412;-74
2023/09/19 07:42:26;;;;;;;0.55;0.55;;;17.10;99.90;;;;;;5142147;27;20190;-74
2023/09/19 07:44:53;;;;;;;0.82;0.82;;;17.00;99.90;;;;;;5153557;27;20723;-74
2023/09/19 07:47:21;;;;;;;1.70;1.00;;;17.10;99.90;;;;;;5153594;27;20194;-74
2023/09/19 07:49:47;;;;;;;0.63;0.63;;;17.10;99.90;;;;;;5153722;27;20197;-74
2023/09/19 07:52:13;;;;;;;0.40;0.40;;;17.10;99.90;;;;;;5153632;27;20277;-74
2023/09/19 07:54:44;;;;;;;0.93;0.75;;;17.10;99.90;;;;;;5153492;27;20183;-74
2023/09/19 07:57:10;;;;;;;0.40;0.40;;;17.20;99.90;;;;;;5153570;27;20291;-74
2023/09/19 07:59:38;;;;;;;0.40;0.40;;;17.20;99.90;;;;;;5152163;27;20297;-74
2023/09/19 08:02:04;;;;;;;0.50;0.50;;;17.20;99.90;;;;;;5152935;27;20186;-74
2023/09/19 08:04:33;;;;;;;0.50;0.50;;;17.20;99.90;;;;;;5153376;27;20568;-73
2023/09/19 08:07:00;;;;;;;0.30;0.30;;;17.20;99.90;;;;;;5153664;27;20193;-74
2023/09/19 08:09:27;;;;;;;0.35;0.35;;;17.30;99.90;;;;;;5153516;27;20182;-74
2023/09/19 08:11:53;;;;;;;0.90;0.88;;;17.40;99.90;;;;;;5133665;27;20237;-73
2023/09/19 08:14:18;;;;;;;0.32;0.32;;;17.40;99.90;;;;;;5153354;27;20224;-74
2023/09/19 08:16:44;;;;;;;0.43;0.43;;;17.40;99.90;;;;;;5153361;27;20194;-74
2023/09/19 08:19:10;;;;;;;0.57;0.45;;;17.40;99.90;;;;;;5151679;27;20190;-74
2023/09/19 08:21:36;;;;;;;0.30;0.30;;;17.30;99.90;;;;;;5132715;28;20198;-73
2023/09/19 08:24:04;;;;;;;0.30;0.30;;;17.20;99.90;;;;;;5132448;28;20680;-74
2023/09/19 08:26:30;;;;;;;0.35;0.35;;;17.20;99.90;;;;;;5133231;27;20195;-74
2023/09/19 08:28:56;;;;;;;0.30;0.30;;;17.30;99.90;;;;;;5136709;27;20183;-74
2023/09/19 08:31:22;;;;;;;0.45;0.45;;;17.20;99.90;;;;;;5136105;27;20574;-74
2023/09/19 08:33:50;;;;;;;0.50;0.50;;;17.20;99.90;;;;;;5136721;27;20604;-74
2023/09/19 08:36:15;;;;;;;0.30;0.30;;;17.20;99.90;;;;;;5156194;27;20672;-74
2023/09/19 08:38:41;;;;;;;1.85;0.80;;;17.20;99.90;;;;;;5156917;27;20202;-74
2023/09/19 08:41:08;;;;;;;0.30;0.30;;;17.20;99.90;;;;;;5155971;27;20194;-74
2023/09/19 08:43:34;;;;;;;0.50;0.50;;;17.30;99.90;;;;;;5156743;27;20218;-74
2023/09/19 08:46:05;;;;;;;0.40;0.35;;;17.40;99.90;;;;;;5156976;27;20218;-73
2023/09/19 08:48:31;;;;;;;0.30;0.30;;;17.70;99.90;;;;;;5157042;27;20190;-74
2023/09/19 08:51:03;;;;;;;0.30;0.30;;;17.90;99.90;;;;;;5147653;27;20672;-74
2023/09/19 08:53:42;;;;;;;0.30;0.30;;;18.00;99.90;;;;;;5136334;27;20645;-74
2023/09/19 08:56:13;;;;;;;0.30;0.30;;;18.00;99.90;;;;;;5136313;27;20607;-73
2023/09/19 08:58:48;;;;;;;0.90;0.45;;;18.30;99.90;;;;;;5154321;27;21188;-74
2023/09/19 09:01:24;;;;;;;0.43;0.43;;;18.40;99.90;;;;;;5156776;27;20185;-74
2023/09/19 09:03:53;;;;;;;0.30;0.30;;;18.00;99.90;;;;;;5138067;27;20217;-73
2023/09/19 09:06:24;;;;;;;1.30;0.93;;;17.60;99.90;;;;;;5156551;27;20190;-73
2023/09/19 09:08:53;;;;;;;0.30;0.30;;;17.40;99.90;;;;;;5156740;27;20187;-73
2023/09/19 09:11:19;;;;;;;0.30;0.30;;;18.00;99.90;;;;;;5156575;27;20182;-73
2023/09/19 09:13:45;;;;;;;0.30;0.30;;;18.20;99.90;;;;;;5156599;27;20202;-74
2023/09/19 09:16:12;;;;;;;0.50;0.50;;;18.30;99.90;;;;;;5156497;27;20197;-74
2023/09/19 09:18:38;;;;;;;0.30;0.30;;;18.10;99.90;;;;;;5156594;27;20695;-73
2023/09/19 09:21:04;;;;;;;1.75;1.05;;;18.00;99.90;;;;;;5156457;27;20194;-74
2023/09/19 09:23:31;;;;;;;0.30;0.30;;;18.10;99.90;;;;;;5156306;27;20197;-74
2023/09/19 09:26:00;;;;;;;0.45;0.45;;;18.40;99.90;;;;;;5137668;27;20228;-73
2023/09/19 09:28:28;;;;;;;0.30;0.30;;;19.10;99.90;;;;;;5155951;27;20660;-74
2023/09/19 09:30:55;;;;;;;0.25;0.25;;;19.70;99.90;;;;;;5156279;27;20242;-74
2023/09/19 09:33:21;;;;;;;0.68;0.43;;;19.70;99.90;;;;;;5156324;27;20268;-72
2023/09/19 09:36:00;;;;;;;0.20;0.20;;;19.60;99.90;;;;;;5155985;27;20208;-71
2023/09/19 09:38:43;;;;;;;0.38;0.38;;;19.80;99.90;;;;;;5155536;27;20193;-71
2023/09/19 09:41:09;;;;;;;0.30;0.30;;;19.80;99.90;;;;;;5155419;27;20197;-71
2023/09/19 09:43:36;;;;;;;0.40;0.40;;;19.30;99.90;;;;;;5155570;27;20225;-72
2023/09/19 09:51:59;;;;;;;0.30;0.30;;;19.20;99.90;;;;;;5135001;27;20197;-71
2023/09/19 09:54:33;;;;;;;0.90;0.82;;;19.30;99.90;;;;;;5130437;27;20249;-71
2023/09/19 09:57:27;;;;;;;0.35;0.35;;;19.60;99.90;;;;;;5155894;27;20194;-72
2023/09/19 09:59:53;;;;;;;0.40;0.40;;;20.10;99.90;;;;;;5155040;27;20763;-71
2023/09/19 10:02:36;;;;;;;0.20;0.20;;;19.80;99.90;;;;;;5153622;27;20692;-71
2023/09/19 10:05:40;;;;;;;0.30;0.30;;;19.50;99.90;;;;;;5137098;27;20210;-73
2023/09/19 10:08:13;;;;;;;0.40;0.40;;;19.50;99.90;;;;;;5155416;27;20238;-72
2023/09/19 10:13:21;;;;;;;0.40;0.40;;;19.70;99.90;;;;;;5155410;27;20209;-72
2023/09/19 10:15:52;;;;;;;0.20;0.20;;;20.00;99.90;;;;;;5155520;27;20413;-71
2023/09/19 10:18:26;;;;;;;0.40;0.40;;;20.20;99.90;;;;;;5155151;27;20225;-72
2023/09/19 10:20:54;;;;;;;0.45;0.45;;;20.50;99.90;;;;;;5155350;27;20682;-72
2023/09/19 10:23:25;;;;;;;0.50;0.50;;;20.50;99.90;;;;;;5136441;27;20684;-71
2023/09/19 10:25:57;;;;;;;0.55;0.50;;;19.50;99.90;;;;;;5134221;27;20264;-72
2023/09/19 10:28:22;;;;;;;0.50;0.50;;;18.80;99.90;;;;;;5133993;27;20258;-72
2023/09/19 10:30:52;;;;;;;0.30;0.30;;;18.70;99.90;;;;;;5122901;27;20335;-71
2023/09/19 10:33:20;;;;;;;0.28;0.28;;;18.70;99.90;;;;;;5154783;27;20299;-72
2023/09/19 10:35:48;;;;;;;1.05;0.63;;;18.70;99.90;;;;;;5138954;27;20252;-71
2023/09/19 10:38:18;;;;;;;0.30;0.30;;;18.60;99.90;;;;;;5134243;27;20255;-72
2023/09/19 10:40:47;;;;;;;0.30;0.30;;;18.70;99.90;;;;;;5134145;27;20614;-73
2023/09/19 10:43:19;;;;;;;0.43;0.43;;;19.00;99.90;;;;;;5133953;27;20183;-72
2023/09/19 10:45:49;;;;;;;0.30;0.30;;;18.90;99.90;;;;;;5133974;27;20578;-72
2023/09/19 10:48:18;;;;;;;0.30;0.30;;;18.80;99.90;;;;;;5134012;27;20183;-70
2023/09/19 10:51:14;;;;;;;0.30;0.30;;;18.70;99.90;;;;;;5129345;27;20202;-73
2023/09/19 10:53:54;;;;;;;0.30;0.30;;;18.10;99.90;;;;;;5154368;27;20198;-71
2023/09/19 10:56:27;;;;;;;0.75;0.75;;;18.00;99.90;;;;;;5154307;27;20186;-71
2023/09/19 10:59:07;;;;;;;0.30;0.30;;;17.70;99.90;;;;;;5135707;27;20614;-71
2023/09/19 11:01:47;;;;;;;0.52;0.52;;;17.60;99.90;;;;;;5154289;27;20217;-72
2023/09/19 11:04:35;;;;;;;0.40;0.40;;;17.50;99.90;;;;;;5154498;27;20201;-71
2023/09/19 11:07:12;;;;;;;0.65;0.65;;;17.30;99.90;;;;;;5154395;27;20249;-71
2023/09/19 11:09:53;;;;;;;0.40;0.40;;;17.40;99.90;;;;;;5138083;27;20332;-72
2023/09/19 11:12:30;;;;;;;0.25;0.25;;;17.20;99.90;;;;;;5133375;27;20234;-71
2023/09/19 11:14:59;;;;;;;0.32;0.32;;;17.00;99.90;;;;;;5133496;27;20222;-72
2023/09/19 11:17:37;;;;;;;0.30;0.30;;;17.00;99.90;;;;;;5133368;27;20210;-71
2023/09/19 11:22:53;;;;;;;0.52;0.52;;;17.60;99.90;;;;;;5154350;27;20200;-71
2023/09/19 11:25:31;;;;;;;0.40;0.40;;;18.10;99.90;;;;;;5153950;27;20194;-72
2023/09/19 11:28:05;;;;;;;0.30;0.30;;;18.20;99.90;;;;;;5153960;27;20653;-71
2023/09/19 11:30:45;;;;;;;0.30;0.30;;;18.40;99.90;;;;;;5153909;27;20189;-72
2023/09/19 11:36:04;;;;;;;0.35;0.35;;;17.80;99.90;;;;;;5137115;27;20198;-72
2023/09/19 11:38:44;;;;;;;0.40;0.40;;;17.60;99.90;;;;;;5114773;28;20203;-71
2023/09/19 11:41:21;;;;;;;0.30;0.30;;;17.40;99.90;;;;;;5133411;27;20178;-72
2023/09/19 11:43:48;;;;;;;0.30;0.30;;;17.30;99.90;;;;;;5132805;27;20218;-72
2023/09/19 11:46:16;;;;;;;0.45;0.45;;;17.20;99.90;;;;;;5141599;27;20235;-72
2023/09/19 11:48:44;;;;;;;0.20;0.20;;;17.60;99.90;;;;;;5153505;27;20250;-72
2023/09/19 11:51:21;;;;;;;0.43;0.43;;;18.10;99.90;;;;;;5153788;27;20290;-73
2023/09/19 11:53:48;;;;;;;0.30;0.30;;;18.30;99.90;;;;;;5153843;27;20178;-72
2023/09/19 11:56:20;;;;;;;0.30;0.30;;;18.30;99.90;;;;;;5135070;27;20229;-73
2023/09/19 11:58:48;;;;;;;0.30;0.30;;;18.00;99.90;;;;;;5153675;27;20239;-72
2023/09/19 12:01:21;;;;;;;0.68;0.47;;;17.90;99.90;;;;;;5155854;27;20190;-71
2023/09/19 12:03:52;;;;;;;0.30;0.30;;;17.70;99.90;;;;;;5158037;27;20194;-72
2023/09/19 12:06:18;;;;;;;0.30;0.30;;;17.70;99.90;;;;;;5157851;27;20565;-73
2023/09/19 12:08:46;;;;;;;0.30;0.30;;;17.70;99.90;;;;;;5157922;27;20190;-72
2023/09/19 12:11:17;;;;;;;0.40;0.40;;;17.90;99.90;;;;;;5157744;27;20261;-71
2023/09/19 12:13:44;;;;;;;0.30;0.30;;;17.70;99.90;;;;;;5157821;27;20210;-71
2023/09/19 12:16:22;;;;;;;0.43;0.43;;;17.70;99.90;;;;;;5136957;27;20712;-71
2023/09/19 12:18:50;;;;;;;0.30;0.30;;;18.10;99.90;;;;;;5136882;27;20713;-71
2023/09/19 12:21:23;;;;;;;0.20;0.20;;;18.20;99.90;;;;;;5136926;27;20728;-71
2023/09/19 12:24:13;;;;;;;0.40;0.40;;;18.20;99.90;;;;;;5146359;27;20710;-71
2023/09/19 12:26:52;;;;;;;0.30;0.30;;;18.10;99.90;;;;;;5157300;27;20526;-71
2023/09/19 12:29:21;;;;;;;0.30;0.30;;;18.20;99.90;;;;;;5157487;27;20202;-71
2023/09/19 12:31:57;;;;;;;2.35;0.95;;;18.20;99.90;;;;;;5157457;27;20731;-73
2023/09/19 12:34:35;;;;;;;0.30;0.30;;;18.40;99.90;;;;;;5151712;27;20186;-73
2023/09/19 12:37:12;;;;;;;0.20;0.20;;;18.50;99.90;;;;;;5136621;27;20701;-73
2023/09/19 12:39:44;;;;;;;0.30;0.30;;;18.80;99.90;;;;;;5136533;27;20285;-73
2023/09/19 12:42:16;;;;;;;0.30;0.30;;;18.50;99.90;;;;;;5142060;27;20200;-74
2023/09/19 12:44:55;;;;;;;0.40;0.40;;;18.20;99.90;;;;;;5156596;27;20226;-74
2023/09/19 12:47:23;;;;;;;2.47;0.57;;;18.00;99.90;;;;;;5138363;27;20605;-74
2023/09/19 12:50:16;;;;;;;0.30;0.30;;;17.50;99.90;;;;;;5138420;27;20298;-74
2023/09/19 12:52:53;;;;;;;0.38;0.38;;;17.30;99.90;;;;;;5156762;27;20190;-71
2023/09/19 12:55:32;;;;;;;2.33;1.42;;;17.30;99.90;;;;;;5156712;27;20277;-71
2023/09/19 12:58:15;;;;;;;0.22;0.22;;;17.30;99.90;;;;;;5156889;27;20186;-71
2023/09/19 13:00:44;;;;;;;17.30;0.95;;;17.60;99.90;;;;;;5153896;27;20221;-71
2023/09/19 13:03:28;;;;;;;0.35;0.35;;;17.80;99.90;;;;;;5117821;27;20253;-72
2023/09/19 13:06:04;;;;;;;0.30;0.30;;;17.90;99.90;;;;;;5135909;27;20195;-71
2023/09/19 13:08:38;;;;;;;0.30;0.30;;;17.70;99.90;;;;;;5136004;27;20190;-71
2023/09/19 13:11:15;;;;;;;1.70;0.57;;;17.60;99.90;;;;;;5135793;27;20203;-71
2023/09/19 13:13:53;;;;;;;0.30;0.30;;;17.20;99.90;;;;;;5147736;27;20268;-71
2023/09/19 13:16:22;;;;;;;0.30;0.30;;;17.00;99.90;;;;;;5155541;27;20198;-71